Time;durP1;ratioP1;P1;durP2;ratioP2;P2;SDS_P1;SDS_P2;PMS_P1;PMS_P2;Temp;Humidity;BMP_temperature;BMP_pressure;BME280_temperature;BME280_humidity;BME280_pressure;Samples;Min_cycle;Max_cycle;Signal;HPM_P1;HPM_P2
2022/10/02 00:01:57;;;;;;;0.60;0.60;;;13.80;99.90;;;;;;5074214;28;20228;-90
2022/10/02 00:04:33;;;;;;;1.20;1.10;;;13.80;99.90;;;;;;5074736;28;20208;-89
2022/10/02 00:07:06;;;;;;;1.45;0.70;;;13.70;99.90;;;;;;5074396;28;20220;-90
2022/10/02 00:09:42;;;;;;;0.90;0.88;;;13.80;99.90;;;;;;5074155;28;20213;-90
2022/10/02 00:12:15;;;;;;;0.80;0.80;;;13.70;99.90;;;;;;5074706;28;20207;-90
2022/10/02 00:14:46;;;;;;;0.55;0.55;;;13.70;99.90;;;;;;5073960;28;20193;-90
2022/10/02 00:17:20;;;;;;;1.70;0.90;;;13.80;99.90;;;;;;5074395;28;20231;-89
2022/10/02 00:19:52;;;;;;;0.95;0.95;;;13.70;99.90;;;;;;5073984;28;20193;-89
2022/10/02 00:22:33;;;;;;;0.90;0.90;;;13.70;99.90;;;;;;5073672;28;20217;-89
2022/10/02 00:25:12;;;;;;;0.63;0.63;;;13.70;99.90;;;;;;5071120;28;20201;-90
2022/10/02 00:27:48;;;;;;;0.43;0.43;;;13.70;99.90;;;;;;5073413;28;20232;-90
2022/10/02 00:30:18;;;;;;;0.50;0.50;;;13.70;99.90;;;;;;5074048;28;20205;-90
2022/10/02 00:32:59;;;;;;;0.90;0.90;;;13.70;99.90;;;;;;5074330;28;20201;-91
2022/10/02 00:35:48;;;;;;;0.80;0.80;;;13.70;99.90;;;;;;5074057;28;20205;-91
2022/10/02 00:38:33;;;;;;;0.93;0.77;;;13.70;99.90;;;;;;5073567;28;20264;-91
2022/10/02 00:41:41;;;;;;;0.73;0.45;;;13.70;99.90;;;;;;5073167;28;20208;-91
2022/10/02 00:44:29;;;;;;;0.70;0.70;;;13.70;99.90;;;;;;5073646;28;20201;-91
2022/10/02 00:47:04;;;;;;;0.55;0.55;;;13.70;99.90;;;;;;5074048;28;20224;-90
2022/10/02 00:49:57;;;;;;;0.82;0.82;;;13.70;99.90;;;;;;5072956;28;20200;-91
2022/10/02 00:52:40;;;;;;;0.65;0.65;;;13.80;99.90;;;;;;5073329;28;20203;-91
2022/10/02 00:55:43;;;;;;;0.57;0.57;;;13.80;99.90;;;;;;5073397;28;20197;-91
2022/10/02 00:58:33;;;;;;;0.88;0.88;;;13.80;99.90;;;;;;5073437;28;20199;-91
2022/10/02 01:01:08;;;;;;;0.98;0.98;;;13.90;99.90;;;;;;5073749;28;20193;-90
2022/10/02 01:03:39;;;;;;;0.57;0.57;;;13.90;99.90;;;;;;5072632;28;20227;-90
2022/10/02 01:06:09;;;;;;;0.60;0.60;;;13.90;99.90;;;;;;5073271;28;20228;-90
2022/10/02 01:08:38;;;;;;;0.50;0.50;;;13.90;99.90;;;;;;5072728;28;20208;-90
2022/10/02 01:11:08;;;;;;;1.23;0.70;;;13.90;99.90;;;;;;5072752;28;20207;-91
2022/10/02 01:13:38;;;;;;;0.50;0.50;;;13.80;99.90;;;;;;5073038;28;20209;-90
2022/10/02 01:16:11;;;;;;;0.65;0.65;;;13.80;99.90;;;;;;5073567;28;20225;-90
2022/10/02 01:18:41;;;;;;;0.68;0.68;;;13.80;99.90;;;;;;5073304;28;20215;-91
2022/10/02 01:21:16;;;;;;;0.52;0.52;;;13.80;99.90;;;;;;5075169;28;20217;-90
2022/10/02 01:23:55;;;;;;;0.40;0.40;;;13.70;99.90;;;;;;5073741;28;20227;-91
2022/10/02 01:26:25;;;;;;;0.40;0.40;;;13.70;99.90;;;;;;5071731;28;20228;-91
2022/10/02 01:28:53;;;;;;;0.85;0.65;;;13.70;99.90;;;;;;5072994;28;20193;-90
2022/10/02 01:31:23;;;;;;;0.40;0.40;;;13.60;99.90;;;;;;5072998;28;20207;-90
2022/10/02 01:33:53;;;;;;;0.50;0.50;;;13.70;99.90;;;;;;5072750;28;20193;-90
2022/10/02 01:36:22;;;;;;;0.88;0.88;;;13.70;99.90;;;;;;5073206;28;20221;-90
2022/10/02 01:38:52;;;;;;;0.60;0.60;;;13.60;99.90;;;;;;5072804;28;20209;-90
2022/10/02 01:41:20;;;;;;;0.75;0.75;;;13.60;99.90;;;;;;5073024;28;20262;-90
2022/10/02 01:43:53;;;;;;;0.82;0.82;;;13.60;99.90;;;;;;5072755;28;20212;-90
2022/10/02 01:46:35;;;;;;;0.45;0.45;;;13.50;99.90;;;;;;5073055;28;20216;-90
2022/10/02 01:49:16;;;;;;;1.20;0.90;;;13.50;99.90;;;;;;5072436;28;20225;-89
2022/10/02 01:51:56;;;;;;;0.50;0.50;;;13.50;99.90;;;;;;5073212;28;20200;-91
2022/10/02 01:54:36;;;;;;;0.82;0.60;;;13.50;99.90;;;;;;5073007;28;20208;-90
2022/10/02 01:57:17;;;;;;;0.55;0.55;;;13.50;99.90;;;;;;5073098;28;20229;-92
2022/10/02 01:59:58;;;;;;;0.95;0.70;;;13.40;99.90;;;;;;5072718;28;20197;-90
2022/10/02 02:02:34;;;;;;;0.57;0.57;;;13.40;99.90;;;;;;5073057;28;20200;-90
2022/10/02 02:05:09;;;;;;;4.95;0.82;;;13.40;99.90;;;;;;5072812;28;20200;-91
2022/10/02 02:07:48;;;;;;;4.68;0.63;;;13.40;99.90;;;;;;5072977;28;20220;-92
2022/10/02 02:10:24;;;;;;;1.25;0.63;;;13.40;99.90;;;;;;5072273;28;20197;-90
2022/10/02 02:13:00;;;;;;;0.30;0.30;;;13.40;99.90;;;;;;5072885;28;20205;-90
2022/10/02 02:15:37;;;;;;;0.70;0.70;;;13.40;99.90;;;;;;5056876;28;20203;-90
2022/10/02 02:18:12;;;;;;;0.60;0.60;;;13.40;99.90;;;;;;5076065;28;20225;-90
2022/10/02 02:20:51;;;;;;;0.45;0.45;;;13.40;99.90;;;;;;5076479;28;20205;-90
2022/10/02 02:23:24;;;;;;;0.38;0.38;;;13.40;99.90;;;;;;5075645;28;20213;-90
2022/10/02 02:25:59;;;;;;;0.63;0.63;;;13.40;99.90;;;;;;5076272;28;20213;-90
2022/10/02 02:28:30;;;;;;;0.70;0.60;;;13.30;99.90;;;;;;5075787;28;20200;-90
2022/10/02 02:31:02;;;;;;;0.70;0.70;;;13.30;99.90;;;;;;5075906;28;20262;-90
2022/10/02 02:33:37;;;;;;;0.40;0.40;;;13.30;99.90;;;;;;5076295;28;20201;-90
2022/10/02 02:36:11;;;;;;;0.68;0.68;;;13.30;99.90;;;;;;5076354;28;20236;-90
2022/10/02 02:38:44;;;;;;;1.10;0.60;;;13.20;99.90;;;;;;5075961;28;20200;-90
2022/10/02 02:41:15;;;;;;;0.60;0.52;;;13.20;99.90;;;;;;5076483;28;20205;-90
2022/10/02 02:43:47;;;;;;;0.45;0.40;;;13.20;99.90;;;;;;5076414;28;20221;-90
2022/10/02 02:46:25;;;;;;;0.40;0.40;;;13.20;99.90;;;;;;5076571;28;20225;-91
2022/10/02 02:48:58;;;;;;;0.60;0.60;;;13.10;99.90;;;;;;5076267;28;20203;-90
2022/10/02 02:51:30;;;;;;;3.38;1.00;;;13.10;99.90;;;;;;5076732;28;20215;-89
2022/10/02 02:54:05;;;;;;;0.32;0.32;;;13.10;99.90;;;;;;5075508;28;20197;-90
2022/10/02 02:56:34;;;;;;;0.98;0.70;;;13.10;99.90;;;;;;5075412;28;20223;-89
2022/10/02 02:59:06;;;;;;;1.55;0.80;;;13.00;99.90;;;;;;5075995;28;20209;-90
2022/10/02 03:01:36;;;;;;;0.55;0.52;;;13.00;99.90;;;;;;5075678;28;20202;-90
2022/10/02 03:04:04;;;;;;;1.02;0.50;;;13.00;99.90;;;;;;5075362;28;20221;-90
2022/10/02 03:06:36;;;;;;;0.60;0.60;;;13.00;99.90;;;;;;5075011;28;20227;-91
2022/10/02 03:09:08;;;;;;;0.57;0.57;;;12.90;99.90;;;;;;5075479;28;20276;-91
2022/10/02 03:11:48;;;;;;;0.57;0.50;;;12.90;99.90;;;;;;5075429;28;20273;-89
2022/10/02 03:14:37;;;;;;;0.70;0.70;;;12.90;99.90;;;;;;5075214;28;20200;-92
2022/10/02 03:17:17;;;;;;;0.95;0.70;;;12.90;99.90;;;;;;5075435;28;20221;-89
2022/10/02 03:19:49;;;;;;;0.68;0.68;;;12.90;99.90;;;;;;5074923;28;20219;-90
2022/10/02 03:22:26;;;;;;;0.52;0.52;;;12.80;99.90;;;;;;5075404;28;20193;-91
2022/10/02 03:25:02;;;;;;;1.95;0.57;;;12.90;99.90;;;;;;5074853;28;20274;-91
2022/10/02 03:27:35;;;;;;;1.67;0.47;;;12.90;99.90;;;;;;5074012;28;20232;-89
2022/10/02 03:30:07;;;;;;;0.73;0.73;;;12.90;99.90;;;;;;5074948;28;20197;-90
2022/10/02 03:32:38;;;;;;;0.73;0.50;;;12.90;99.90;;;;;;5074887;28;20205;-90
2022/10/02 03:35:12;;;;;;;0.50;0.50;;;12.80;99.90;;;;;;5075135;28;20193;-91
2022/10/02 03:37:42;;;;;;;0.60;0.60;;;12.80;99.90;;;;;;5074646;28;20232;-90
2022/10/02 03:40:11;;;;;;;0.75;0.68;;;12.80;99.90;;;;;;5074248;28;20208;-90
2022/10/02 03:42:40;;;;;;;0.20;0.20;;;12.80;99.90;;;;;;5074012;28;20283;-90
2022/10/02 03:45:09;;;;;;;0.38;0.38;;;12.70;99.90;;;;;;5067789;28;20248;-91
2022/10/02 03:47:39;;;;;;;1.40;0.52;;;12.70;99.90;;;;;;5074903;28;20233;-91
2022/10/02 03:50:07;;;;;;;0.43;0.43;;;12.70;99.90;;;;;;5073882;28;20201;-92
2022/10/02 03:52:37;;;;;;;0.90;0.70;;;12.70;99.90;;;;;;5074177;28;20201;-90
2022/10/02 03:55:17;;;;;;;1.42;0.88;;;12.60;99.90;;;;;;5074013;28;20200;-91
2022/10/02 03:57:47;;;;;;;0.60;0.60;;;12.60;99.90;;;;;;5073949;28;20232;-90
2022/10/02 04:00:19;;;;;;;0.60;0.60;;;12.70;99.90;;;;;;5074233;28;20212;-90
2022/10/02 04:02:56;;;;;;;0.45;0.45;;;12.60;99.90;;;;;;5074144;28;20228;-90
2022/10/02 04:05:27;;;;;;;0.85;0.85;;;12.60;99.90;;;;;;5074420;28;20244;-91
2022/10/02 04:08:00;;;;;;;0.40;0.40;;;12.60;99.90;;;;;;5074447;28;20312;-90
2022/10/02 04:10:32;;;;;;;0.40;0.40;;;12.60;99.90;;;;;;5074198;28;20201;-90
2022/10/02 04:13:09;;;;;;;0.73;0.73;;;12.70;99.90;;;;;;5073534;28;20189;-90
2022/10/02 04:15:48;;;;;;;0.55;0.55;;;12.60;99.90;;;;;;5074347;28;20213;-91
2022/10/02 04:18:22;;;;;;;0.47;0.47;;;12.60;99.90;;;;;;5073894;28;20222;-91
2022/10/02 04:20:55;;;;;;;0.50;0.50;;;12.60;99.90;;;;;;5074273;28;20193;-90
2022/10/02 04:23:29;;;;;;;0.45;0.32;;;12.60;99.90;;;;;;5074061;28;20205;-91
2022/10/02 04:26:02;;;;;;;0.70;0.70;;;12.60;99.90;;;;;;5073205;28;20216;-90
2022/10/02 04:28:38;;;;;;;0.80;0.70;;;12.50;99.90;;;;;;5073851;28;20192;-90
2022/10/02 04:31:10;;;;;;;0.50;0.50;;;12.60;99.90;;;;;;5074093;28;20201;-89
2022/10/02 04:33:41;;;;;;;0.38;0.38;;;12.50;99.90;;;;;;5074299;28;20212;-86
2022/10/02 04:36:20;;;;;;;0.65;0.65;;;12.50;99.90;;;;;;5073477;28;20213;-90
2022/10/02 04:39:12;;;;;;;1.25;0.65;;;12.50;99.90;;;;;;5073497;28;20211;-91
2022/10/02 04:41:57;;;;;;;7.97;1.15;;;12.50;99.90;;;;;;5072741;28;20205;-91
2022/10/02 04:44:36;;;;;;;0.77;0.70;;;12.50;99.90;;;;;;5073429;28;20220;-92
2022/10/02 04:47:38;;;;;;;1.00;0.90;;;12.50;99.90;;;;;;5073510;28;20320;-90
2022/10/02 04:50:26;;;;;;;0.82;0.60;;;12.50;99.90;;;;;;5052893;28;20209;-90
2022/10/02 04:53:11;;;;;;;0.80;0.77;;;12.60;99.90;;;;;;5054061;28;20201;-91
2022/10/02 04:56:15;;;;;;;0.45;0.45;;;12.60;99.90;;;;;;5056325;28;20202;-90
2022/10/02 04:59:01;;;;;;;0.68;0.68;;;12.60;99.90;;;;;;5032792;28;20252;-91
2022/10/02 05:01:48;;;;;;;1.05;0.88;;;12.60;99.90;;;;;;5069454;28;20251;-91
2022/10/02 05:04:36;;;;;;;0.90;0.85;;;12.60;99.90;;;;;;5073549;28;20221;-91
2022/10/02 05:07:18;;;;;;;0.60;0.55;;;12.70;99.90;;;;;;5073672;28;20278;-90
2022/10/02 05:09:55;;;;;;;0.80;0.80;;;12.70;99.90;;;;;;5073318;28;20295;-91
2022/10/02 05:12:38;;;;;;;0.95;0.77;;;12.70;99.90;;;;;;5073007;28;20212;-91
2022/10/02 05:15:35;;;;;;;0.60;0.60;;;12.70;99.90;;;;;;5072801;28;20205;-91
2022/10/02 05:18:25;;;;;;;2.20;0.80;;;12.70;99.90;;;;;;5072771;28;20233;-90
2022/10/02 05:21:07;;;;;;;8.30;1.08;;;12.70;99.90;;;;;;5073235;28;20213;-91
2022/10/02 05:23:50;;;;;;;1.10;0.55;;;12.70;99.90;;;;;;5073014;28;20197;-92
2022/10/02 05:26:31;;;;;;;1.00;0.80;;;12.70;99.90;;;;;;5068286;28;20233;-90
2022/10/02 05:29:16;;;;;;;0.70;0.70;;;12.70;99.90;;;;;;5059522;28;20228;-91
2022/10/02 05:32:02;;;;;;;0.70;0.70;;;12.80;99.90;;;;;;5061505;28;20200;-91
2022/10/02 05:34:45;;;;;;;1.80;0.75;;;12.80;99.90;;;;;;5072919;28;20201;-91
2022/10/02 05:37:41;;;;;;;1.55;1.05;;;12.80;99.90;;;;;;5073119;28;20213;-91
2022/10/02 05:40:23;;;;;;;1.27;1.17;;;12.80;99.90;;;;;;5065968;28;20201;-91
2022/10/02 05:43:00;;;;;;;2.15;1.20;;;12.90;99.90;;;;;;5072778;28;20228;-90
2022/10/02 05:45:34;;;;;;;0.90;0.70;;;12.90;99.90;;;;;;5072689;28;20213;-91
2022/10/02 05:48:08;;;;;;;0.75;0.75;;;12.90;99.90;;;;;;5072603;28;20219;-91
2022/10/02 05:50:38;;;;;;;1.17;0.90;;;12.90;99.90;;;;;;5072996;28;20197;-91
2022/10/02 05:53:17;;;;;;;1.13;1.02;;;13.00;99.90;;;;;;5076886;28;20193;-92
2022/10/02 05:55:53;;;;;;;1.00;1.00;;;13.00;99.90;;;;;;5074106;28;20205;-92
2022/10/02 05:58:27;;;;;;;0.80;0.80;;;13.10;99.90;;;;;;5067789;28;20217;-91
2022/10/02 06:01:04;;;;;;;1.05;1.05;;;13.20;99.90;;;;;;5065742;28;20201;-90
2022/10/02 06:03:42;;;;;;;6.13;1.23;;;13.20;99.90;;;;;;5069519;28;20238;-91
2022/10/02 06:06:15;;;;;;;0.82;0.82;;;13.20;99.90;;;;;;5073177;28;20227;-91
2022/10/02 06:08:51;;;;;;;0.75;0.75;;;13.30;99.90;;;;;;5076065;28;20208;-86
2022/10/02 06:11:27;;;;;;;1.30;1.10;;;13.40;99.90;;;;;;5072950;28;20204;-83
2022/10/02 06:14:00;;;;;;;0.90;0.90;;;13.50;99.90;;;;;;5062553;28;20229;-83
2022/10/02 06:16:34;;;;;;;0.70;0.70;;;13.50;99.90;;;;;;5058524;28;20233;-83
2022/10/02 06:19:09;;;;;;;1.17;0.98;;;13.60;99.90;;;;;;5076446;28;20295;-83
2022/10/02 06:21:45;;;;;;;2.15;1.10;;;13.70;99.90;;;;;;5075891;28;20193;-83
2022/10/02 06:24:20;;;;;;;1.52;0.98;;;13.70;99.90;;;;;;5065981;28;20197;-83
2022/10/02 06:26:55;;;;;;;0.77;0.77;;;13.70;99.90;;;;;;5075954;28;20231;-84
2022/10/02 06:29:28;;;;;;;1.95;0.80;;;13.80;99.90;;;;;;5076317;28;20208;-83
2022/10/02 06:32:06;;;;;;;1.00;1.00;;;13.90;99.90;;;;;;5076018;28;20213;-83
2022/10/02 06:34:34;;;;;;;1.00;0.73;;;13.90;99.90;;;;;;5076217;28;20217;-83
2022/10/02 06:37:28;;;;;;;2.25;1.35;;;14.00;99.90;;;;;;5075260;28;20233;-82
2022/10/02 06:40:20;;;;;;;1.25;1.13;;;14.10;99.90;;;;;;5075307;28;20215;-82
2022/10/02 06:42:58;;;;;;;1.13;0.80;;;14.10;99.90;;;;;;5075731;28;20213;-82
2022/10/02 06:45:35;;;;;;;0.80;0.80;;;14.20;99.90;;;;;;5075311;28;20216;-82
2022/10/02 06:48:14;;;;;;;0.95;0.85;;;14.30;99.90;;;;;;5075143;28;20294;-82
2022/10/02 06:50:49;;;;;;;1.75;1.20;;;14.30;99.90;;;;;;5075265;28;20203;-83
2022/10/02 06:53:42;;;;;;;1.40;1.25;;;14.40;99.90;;;;;;5074557;28;20307;-82
2022/10/02 06:56:37;;;;;;;2.72;1.30;;;14.40;99.90;;;;;;5074609;28;20236;-83
2022/10/02 06:59:21;;;;;;;1.25;1.15;;;14.50;99.90;;;;;;5074029;28;20500;-83
2022/10/02 07:01:57;;;;;;;1.52;1.23;;;14.60;99.90;;;;;;5073080;28;20208;-83
2022/10/02 07:04:43;;;;;;;2.63;1.63;;;14.70;99.90;;;;;;5074501;28;20209;-83
2022/10/02 07:07:26;;;;;;;1.90;1.10;;;14.70;99.90;;;;;;5074026;28;20225;-87
2022/10/02 07:10:24;;;;;;;1.30;1.00;;;14.60;99.90;;;;;;5074388;28;20209;-87
2022/10/02 07:13:16;;;;;;;1.35;1.25;;;14.70;99.90;;;;;;5074476;28;20213;-87
2022/10/02 07:16:14;;;;;;;2.47;1.63;;;14.80;99.90;;;;;;5074340;28;20201;-83
2022/10/02 07:19:11;;;;;;;2.42;1.05;;;14.90;99.90;;;;;;5073872;28;20259;-86
2022/10/02 07:21:51;;;;;;;1.65;1.27;;;15.00;99.90;;;;;;5074744;28;20220;-87
2022/10/02 07:24:36;;;;;;;4.07;1.23;;;15.00;99.90;;;;;;5074226;28;20262;-87
2022/10/02 07:27:11;;;;;;;1.27;1.17;;;15.10;99.90;;;;;;5073549;28;20236;-87
2022/10/02 07:29:49;;;;;;;1.25;1.15;;;15.00;99.90;;;;;;5073499;28;20205;-87
2022/10/02 07:32:46;;;;;;;1.13;1.08;;;15.00;99.90;;;;;;5073816;28;20208;-86
2022/10/02 07:35:30;;;;;;;3.63;1.48;;;15.00;99.90;;;;;;5073685;28;20201;-86
2022/10/02 07:38:18;;;;;;;1.80;1.38;;;15.00;99.90;;;;;;5074313;28;20233;-87
2022/10/02 07:40:58;;;;;;;0.95;0.95;;;15.10;99.90;;;;;;5073990;28;20216;-86
2022/10/02 07:43:39;;;;;;;3.05;1.35;;;15.10;99.90;;;;;;5073729;28;20289;-86
2022/10/02 07:46:16;;;;;;;1.70;1.38;;;15.20;99.90;;;;;;5073492;28;20239;-86
2022/10/02 07:49:04;;;;;;;1.30;1.20;;;15.20;99.90;;;;;;5073615;28;20262;-86
2022/10/02 07:51:49;;;;;;;1.30;1.20;;;15.20;99.90;;;;;;5073665;28;20216;-87
2022/10/02 07:54:34;;;;;;;1.13;1.02;;;15.10;99.90;;;;;;5073722;28;20212;-86
2022/10/02 07:57:20;;;;;;;1.58;1.10;;;15.10;99.90;;;;;;5073252;28;20232;-88
2022/10/02 07:59:50;;;;;;;1.67;1.25;;;15.00;99.90;;;;;;5072934;28;20209;-86
2022/10/02 08:02:25;;;;;;;1.40;1.30;;;14.90;99.90;;;;;;5073131;28;20208;-87
2022/10/02 08:04:59;;;;;;;1.65;1.55;;;14.90;99.90;;;;;;5073175;28;20201;-87
2022/10/02 08:07:30;;;;;;;0.77;0.77;;;14.80;99.90;;;;;;5073220;28;20220;-87
2022/10/02 08:10:03;;;;;;;1.40;1.13;;;14.80;99.90;;;;;;5073194;28;20235;-86
2022/10/02 08:12:36;;;;;;;1.00;1.00;;;14.80;99.90;;;;;;5073300;28;20216;-87
2022/10/02 08:15:07;;;;;;;1.25;1.15;;;14.80;99.90;;;;;;5073637;28;20213;-88
2022/10/02 08:17:42;;;;;;;1.30;1.20;;;14.70;99.90;;;;;;5073657;28;20225;-86
2022/10/02 08:20:23;;;;;;;1.73;1.13;;;14.70;99.90;;;;;;5073171;28;20212;-88
2022/10/02 08:23:05;;;;;;;1.10;0.90;;;14.70;99.90;;;;;;5073414;28;20330;-86
2022/10/02 08:25:43;;;;;;;2.95;1.52;;;14.70;99.90;;;;;;5073670;28;20215;-87
2022/10/02 08:28:19;;;;;;;1.35;1.25;;;14.80;99.90;;;;;;5073405;28;20231;-87
2022/10/02 08:30:48;;;;;;;1.55;1.45;;;14.90;99.90;;;;;;5073834;28;20232;-86
2022/10/02 08:33:19;;;;;;;1.25;1.15;;;14.90;99.90;;;;;;5073157;28;20216;-86
2022/10/02 08:36:05;;;;;;;1.30;1.20;;;15.00;99.90;;;;;;5073224;28;20209;-87
2022/10/02 08:38:39;;;;;;;1.23;1.13;;;15.00;99.90;;;;;;5073380;28;20235;-86
2022/10/02 08:41:40;;;;;;;1.23;1.10;;;15.00;99.90;;;;;;5073317;28;20208;-87
2022/10/02 08:44:45;;;;;;;1.30;1.20;;;15.10;99.90;;;;;;5073329;28;20212;-87
2022/10/02 08:47:59;;;;;;;1.27;1.17;;;15.20;99.90;;;;;;5072411;28;20236;-86
2022/10/02 08:51:04;;;;;;;2.20;1.42;;;15.20;99.90;;;;;;5073247;28;20216;-87
2022/10/02 08:54:15;;;;;;;1.60;1.35;;;15.20;99.90;;;;;;5031135;28;20206;-87
2022/10/02 08:57:06;;;;;;;1.00;1.00;;;15.10;99.90;;;;;;5073379;28;20221;-87
2022/10/02 09:00:00;;;;;;;0.70;0.70;;;15.10;99.90;;;;;;5072568;28;20209;-87
2022/10/02 09:03:03;;;;;;;1.33;1.23;;;15.30;99.90;;;;;;5072499;28;20209;-87
2022/10/02 09:06:19;;;;;;;1.42;0.95;;;15.40;99.90;;;;;;5072841;28;20209;-87
2022/10/02 09:09:28;;;;;;;1.15;1.08;;;15.60;99.90;;;;;;5030678;28;20218;-87
2022/10/02 09:12:42;;;;;;;1.27;1.00;;;15.90;99.90;;;;;;5065046;28;20209;-87
2022/10/02 09:15:23;;;;;;;2.20;1.40;;;16.30;99.90;;;;;;5048339;28;20208;-87
2022/10/02 09:18:09;;;;;;;1.40;1.20;;;16.50;99.90;;;;;;5072539;28;20221;-86
2022/10/02 09:20:47;;;;;;;3.40;1.90;;;16.50;99.90;;;;;;5072745;28;20201;-86
2022/10/02 09:23:44;;;;;;;1.25;0.98;;;16.50;99.90;;;;;;5072755;28;20212;-87
2022/10/02 09:26:19;;;;;;;1.30;1.20;;;16.50;99.90;;;;;;5071384;28;20232;-86
2022/10/02 09:29:19;;;;;;;1.00;1.00;;;16.70;99.90;;;;;;5072736;28;20212;-86
2022/10/02 09:32:48;;;;;;;1.52;1.27;;;16.90;99.90;;;;;;5072311;28;20211;-87
2022/10/02 09:35:56;;;;;;;0.77;0.77;;;17.00;99.90;;;;;;5072579;28;20215;-87
2022/10/02 09:38:58;;;;;;;1.45;1.20;;;16.90;99.90;;;;;;5055726;28;20200;-86
2022/10/02 09:42:08;;;;;;;1.17;1.08;;;16.80;99.90;;;;;;5061494;28;20215;-86
2022/10/02 09:45:31;;;;;;;1.15;0.90;;;16.70;99.90;;;;;;5072434;28;20208;-86
2022/10/02 09:48:44;;;;;;;2.03;0.88;;;16.80;99.90;;;;;;5010835;28;20331;-87
2022/10/02 09:51:45;;;;;;;0.77;0.77;;;16.90;99.90;;;;;;5072401;28;20261;-87
2022/10/02 09:54:52;;;;;;;1.52;1.10;;;16.80;99.90;;;;;;5072488;28;20215;-86
2022/10/02 09:57:49;;;;;;;1.30;1.13;;;16.80;99.90;;;;;;5060246;28;20228;-87
2022/10/02 10:00:25;;;;;;;1.20;1.10;;;16.80;99.90;;;;;;5072115;28;20212;-86
2022/10/02 10:03:35;;;;;;;1.20;1.10;;;16.80;99.90;;;;;;5072126;28;20213;-86
2022/10/02 10:06:39;;;;;;;0.98;0.88;;;16.80;99.90;;;;;;5072182;28;20209;-87
2022/10/02 10:09:45;;;;;;;0.90;0.90;;;16.60;99.90;;;;;;5071971;28;20205;-86
2022/10/02 10:12:53;;;;;;;1.27;1.17;;;16.60;99.90;;;;;;5072315;28;20209;-87
2022/10/02 10:16:01;;;;;;;1.10;1.00;;;16.50;99.90;;;;;;5067824;28;20209;-87
2022/10/02 10:19:10;;;;;;;1.20;1.10;;;16.40;99.90;;;;;;5071817;28;20209;-86
2022/10/02 10:22:04;;;;;;;1.55;1.25;;;16.40;99.90;;;;;;5072188;28;20205;-87
2022/10/02 10:25:06;;;;;;;0.88;0.88;;;16.40;99.90;;;;;;5072007;28;20205;-86
2022/10/02 10:28:19;;;;;;;1.15;1.08;;;16.50;99.90;;;;;;5072302;28;20236;-87
2022/10/02 10:31:22;;;;;;;1.30;1.20;;;16.60;99.90;;;;;;5067658;28;20235;-86
2022/10/02 10:34:19;;;;;;;1.60;1.27;;;16.60;99.90;;;;;;5071833;28;20209;-87
2022/10/02 10:40:22;;;;;;;1.58;1.13;;;16.70;99.90;;;;;;5075632;28;20212;-86
2022/10/02 10:43:31;;;;;;;1.38;1.27;;;16.60;99.90;;;;;;5075218;28;20216;-87
2022/10/02 10:46:30;;;;;;;1.30;1.20;;;16.60;99.90;;;;;;5075120;28;20215;-86
2022/10/02 10:49:36;;;;;;;2.30;1.92;;;16.60;99.90;;;;;;5071972;28;20235;-86
2022/10/02 10:52:14;;;;;;;2.03;1.58;;;16.70;99.90;;;;;;5075489;28;20220;-86
2022/10/02 10:55:05;;;;;;;1.75;1.50;;;16.70;99.90;;;;;;5075768;28;20209;-86
2022/10/02 10:57:50;;;;;;;1.35;1.25;;;16.70;99.90;;;;;;5075241;28;20232;-86
2022/10/02 11:00:26;;;;;;;3.22;1.40;;;16.70;99.90;;;;;;5074473;28;20209;-86
2022/10/02 11:03:18;;;;;;;1.20;1.10;;;16.80;99.90;;;;;;5074932;28;20208;-86
2022/10/02 11:06:20;;;;;;;5.35;1.90;;;16.60;99.90;;;;;;5074912;28;20206;-86
2022/10/02 11:09:28;;;;;;;1.73;1.25;;;16.60;99.90;;;;;;5074827;28;20252;-86
2022/10/02 11:12:16;;;;;;;1.38;1.02;;;16.60;99.90;;;;;;5074937;28;20208;-88
2022/10/02 11:15:03;;;;;;;1.88;1.77;;;16.50;99.90;;;;;;5075141;28;20216;-86
2022/10/02 11:17:50;;;;;;;1.70;1.60;;;16.50;99.90;;;;;;5074971;28;20312;-88
2022/10/02 11:20:41;;;;;;;1.38;1.25;;;16.60;99.90;;;;;;5074627;28;20212;-87
2022/10/02 11:23:42;;;;;;;1.45;1.35;;;16.70;99.90;;;;;;5074861;28;20220;-87
2022/10/02 11:26:27;;;;;;;1.27;1.10;;;16.80;99.90;;;;;;5057313;28;20233;-86
2022/10/02 11:29:16;;;;;;;2.75;2.55;;;17.00;99.90;;;;;;5073961;28;20224;-86
2022/10/02 11:32:08;;;;;;;1.70;1.60;;;17.10;99.90;;;;;;5074559;28;20213;-86
2022/10/02 11:35:01;;;;;;;0.90;0.90;;;17.30;99.90;;;;;;5074515;28;20209;-86
2022/10/02 11:37:53;;;;;;;1.67;1.58;;;17.30;99.90;;;;;;5074309;28;20225;-87
2022/10/02 11:40:39;;;;;;;1.70;1.60;;;17.20;99.90;;;;;;5074150;28;20216;-88
2022/10/02 11:43:38;;;;;;;1.35;1.25;;;17.10;99.90;;;;;;5073876;28;20201;-87
2022/10/02 11:46:36;;;;;;;0.80;0.80;;;17.10;99.90;;;;;;5073921;28;20217;-86
2022/10/02 11:49:38;;;;;;;1.35;1.25;;;17.00;99.90;;;;;;5072862;28;20228;-87
2022/10/02 11:52:22;;;;;;;1.92;1.83;;;17.00;99.90;;;;;;5074371;28;20209;-86
2022/10/02 11:55:03;;;;;;;1.80;1.65;;;16.90;99.90;;;;;;5074208;28;20205;-86
2022/10/02 11:57:40;;;;;;;2.58;1.67;;;16.90;99.90;;;;;;5073974;28;20225;-86
2022/10/02 12:00:44;;;;;;;0.80;0.80;;;17.00;99.90;;;;;;5073900;28;20209;-87
2022/10/02 12:03:19;;;;;;;1.10;1.05;;;16.90;99.90;;;;;;5038972;28;20212;-87
2022/10/02 12:05:57;;;;;;;0.85;0.85;;;16.70;99.90;;;;;;5073706;28;20262;-87
2022/10/02 12:08:40;;;;;;;1.90;1.48;;;16.50;99.90;;;;;;5073623;28;20220;-87
2022/10/02 12:11:14;;;;;;;1.02;1.02;;;16.50;99.90;;;;;;5073834;28;20209;-87
2022/10/02 12:14:07;;;;;;;0.95;0.77;;;16.50;99.90;;;;;;5073896;28;20196;-87
2022/10/02 12:16:55;;;;;;;2.70;1.35;;;16.40;99.90;;;;;;5071974;28;20225;-87
2022/10/02 12:19:36;;;;;;;0.88;0.82;;;16.30;99.90;;;;;;5073501;28;20216;-87
2022/10/02 12:28:10;;;;;;;1.00;0.80;;;15.70;99.90;;;;;;5073177;28;20229;-87
2022/10/02 12:30:45;;;;;;;0.73;0.73;;;15.50;99.90;;;;;;5073084;28;20243;-86
2022/10/02 12:33:33;;;;;;;1.20;1.10;;;15.50;99.90;;;;;;5072850;28;20208;-86
2022/10/02 12:36:21;;;;;;;1.92;1.02;;;15.40;99.90;;;;;;5073533;28;20220;-87
2022/10/02 12:38:58;;;;;;;1.33;1.25;;;15.40;99.90;;;;;;5073174;28;20204;-86
2022/10/02 12:41:55;;;;;;;1.05;1.05;;;15.20;99.90;;;;;;5072775;28;20211;-87
2022/10/02 12:45:01;;;;;;;1.88;0.98;;;15.10;99.90;;;;;;5073050;28;20212;-87
2022/10/02 12:48:23;;;;;;;1.20;1.10;;;15.00;99.90;;;;;;5072833;28;20236;-87
2022/10/02 12:51:16;;;;;;;11.63;1.42;;;14.90;99.90;;;;;;5011577;28;20345;-87
2022/10/02 12:54:09;;;;;;;1.60;1.40;;;14.80;99.90;;;;;;5011490;28;20254;-87
2022/10/02 13:00:14;;;;;;;2.85;1.27;;;14.70;99.90;;;;;;5072307;28;20219;-87
2022/10/02 13:03:19;;;;;;;1.40;1.15;;;14.60;99.90;;;;;;5073037;28;20213;-87
2022/10/02 13:06:09;;;;;;;1.45;1.00;;;14.60;99.90;;;;;;5072910;28;20208;-87
2022/10/02 13:09:04;;;;;;;1.27;1.17;;;14.60;99.90;;;;;;5072700;28;20221;-87
2022/10/02 13:11:44;;;;;;;1.65;1.45;;;14.50;99.90;;;;;;5072862;28;20217;-87
2022/10/02 13:14:38;;;;;;;4.25;1.20;;;14.40;99.90;;;;;;5072745;28;20201;-87
2022/10/02 13:17:30;;;;;;;1.40;1.30;;;14.40;99.90;;;;;;5067837;28;20247;-87
2022/10/02 13:20:10;;;;;;;2.25;1.35;;;14.30;99.90;;;;;;5072687;28;20204;-87
2022/10/02 13:22:57;;;;;;;2.25;1.10;;;14.20;99.90;;;;;;5073043;28;20209;-87
2022/10/02 13:25:35;;;;;;;0.88;0.88;;;14.10;99.90;;;;;;5072604;28;20201;-87
2022/10/02 13:28:22;;;;;;;1.25;1.15;;;14.10;99.90;;;;;;5072239;28;20229;-87
2022/10/02 13:31:00;;;;;;;1.00;0.90;;;14.00;99.90;;;;;;5072861;28;20220;-86
2022/10/02 13:33:54;;;;;;;1.33;1.23;;;14.00;99.90;;;;;;5072783;28;20209;-86
2022/10/02 13:36:33;;;;;;;0.80;0.80;;;13.90;99.90;;;;;;5072312;28;20235;-87
2022/10/02 13:39:27;;;;;;;2.65;1.60;;;14.00;99.90;;;;;;5072062;28;20200;-86
2022/10/02 13:42:09;;;;;;;1.98;1.20;;;13.90;99.90;;;;;;5072456;28;20208;-86
2022/10/02 13:44:48;;;;;;;1.65;1.23;;;13.90;99.90;;;;;;5072501;28;20209;-86
2022/10/02 13:47:40;;;;;;;2.25;1.55;;;13.90;99.90;;;;;;5072346;28;20233;-86
2022/10/02 13:50:29;;;;;;;1.25;1.13;;;13.80;99.90;;;;;;5071895;28;20224;-86
2022/10/02 13:53:19;;;;;;;1.92;1.33;;;13.80;99.90;;;;;;5072411;28;20209;-86
2022/10/02 13:55:53;;;;;;;1.60;1.15;;;13.80;99.90;;;;;;5072745;28;20213;-87
2022/10/02 13:58:37;;;;;;;1.70;1.17;;;13.80;99.90;;;;;;5072488;28;20224;-87
2022/10/02 14:01:22;;;;;;;1.80;1.20;;;13.80;99.90;;;;;;5072356;28;20232;-87
2022/10/02 14:04:09;;;;;;;1.20;1.15;;;13.80;99.90;;;;;;5072115;28;20209;-85
2022/10/02 14:06:43;;;;;;;1.52;1.40;;;13.80;99.90;;;;;;5072205;28;20232;-86
2022/10/02 14:09:39;;;;;;;1.38;1.27;;;13.80;99.90;;;;;;5072337;28;20236;-86
2022/10/02 14:12:26;;;;;;;1.02;0.93;;;13.80;99.90;;;;;;5074115;28;20215;-86
2022/10/02 14:15:17;;;;;;;1.27;1.17;;;13.80;99.90;;;;;;5076248;28;20212;-86
2022/10/02 14:18:12;;;;;;;1.30;1.20;;;13.70;99.90;;;;;;5075567;28;20233;-88
2022/10/02 14:20:50;;;;;;;1.25;1.23;;;13.80;99.90;;;;;;5075587;28;20213;-86
2022/10/02 14:23:44;;;;;;;1.25;1.15;;;13.70;99.90;;;;;;5075856;28;20212;-86
2022/10/02 14:26:22;;;;;;;2.00;1.80;;;13.70;99.90;;;;;;5073412;28;20234;-86